SWA2667 KCLT-KMDW
Flight info
| Callsign | SWA2667 |
|---|---|
| Flight time | 1h 27m |
| Altitude | 30000 |
| Route | JOJJO5 DOOGE FLM DROSE FISSK7 |
| Aircraft | B38M/M-SDE1FGHILORVWXY/HB1 |
Departure
| Time | 2026-05-05 18:42 |
|---|---|
| Airport | Charlotte Douglas International Airport (KCLT) |
Arrival
| Time | 2026-05-05 20:09 |
|---|---|
| Airport | Chicago Midway International Airport (KMDW) |
| Time | Latitude | Longitude | Altitude | Speed | Heading |
|---|---|---|---|---|---|
| 2026-05-05 18:11 | 35.22223 | -80.94742 | 735 ft | 0 kts | 356° |
| 2026-05-05 18:31 | 35.22211 | -80.94742 | 733 ft | 4 kts | 36° |
| 2026-05-05 18:31 | 35.22194 | -80.94756 | 735 ft | 4 kts | 26° |
| 2026-05-05 18:31 | 35.22169 | -80.94769 | 735 ft | 4 kts | 21° |
| 2026-05-05 18:32 | 35.22144 | -80.94776 | 735 ft | 4 kts | 351° |
| 2026-05-05 18:32 | 35.22134 | -80.94773 | 735 ft | 4 kts | 294° |
| 2026-05-05 18:32 | 35.22133 | -80.94772 | 735 ft | 4 kts | 288° |
| 2026-05-05 18:33 | 35.22133 | -80.94764 | 735 ft | 4 kts | 266° |
| 2026-05-05 18:33 | 35.22134 | -80.94750 | 735 ft | 0 kts | 266° |
| 2026-05-05 18:37 | 35.22133 | -80.94762 | 735 ft | 5 kts | 266° |
| 2026-05-05 18:37 | 35.22130 | -80.94804 | 735 ft | 10 kts | 266° |
| 2026-05-05 18:38 | 35.22124 | -80.94927 | 735 ft | 18 kts | 268° |
| 2026-05-05 18:38 | 35.22167 | -80.94977 | 735 ft | 11 kts | 353° |
| 2026-05-05 18:38 | 35.22214 | -80.95041 | 736 ft | 12 kts | 277° |
| 2026-05-05 18:38 | 35.22253 | -80.95076 | 736 ft | 8 kts | 354° |
| 2026-05-05 18:39 | 35.22340 | -80.95084 | 734 ft | 16 kts | 356° |
| 2026-05-05 18:39 | 35.22468 | -80.95095 | 736 ft | 21 kts | 355° |
| 2026-05-05 18:39 | 35.22609 | -80.95107 | 736 ft | 18 kts | 355° |
| 2026-05-05 18:39 | 35.22711 | -80.95123 | 736 ft | 14 kts | 331° |
| 2026-05-05 18:40 | 35.22732 | -80.95191 | 737 ft | 0 kts | 264° |
| 2026-05-05 18:41 | 35.22729 | -80.95225 | 739 ft | 8 kts | 264° |
| 2026-05-05 18:41 | 35.22718 | -80.95307 | 742 ft | 8 kts | 229° |
| 2026-05-05 18:41 | 35.22631 | -80.95309 | 743 ft | 19 kts | 176° |
| 2026-05-05 18:41 | 35.22291 | -80.95281 | 743 ft | 84 kts | 176° |
| 2026-05-05 18:42 | 35.21489 | -80.95212 | 741 ft | 144 kts | 176° |
| 2026-05-05 18:42 | 35.20405 | -80.95116 | 1138 ft | 163 kts | 178° |
| 2026-05-05 18:42 | 35.19228 | -80.94982 | 1736 ft | 175 kts | 176° |
| 2026-05-05 18:42 | 35.18039 | -80.94853 | 2612 ft | 175 kts | 176° |
| 2026-05-05 18:43 | 35.16754 | -80.94719 | 3092 ft | 196 kts | 177° |
| 2026-05-05 18:43 | 35.15329 | -80.94812 | 3568 ft | 220 kts | 199° |
| 2026-05-05 18:43 | 35.14017 | -80.95917 | 4168 ft | 238 kts | 230° |
| 2026-05-05 18:43 | 35.13316 | -80.97809 | 4870 ft | 259 kts | 257° |
| 2026-05-05 18:44 | 35.13426 | -81.00047 | 5731 ft | 269 kts | 280° |
| 2026-05-05 18:44 | 35.14071 | -81.02217 | 6615 ft | 279 kts | 298° |
| 2026-05-05 18:44 | 35.15408 | -81.03976 | 7524 ft | 287 kts | 318° |
| 2026-05-05 18:44 | 35.16953 | -81.05561 | 8334 ft | 293 kts | 316° |
| 2026-05-05 18:45 | 35.18501 | -81.07199 | 9187 ft | 296 kts | 315° |
| 2026-05-05 18:45 | 35.20067 | -81.08866 | 10025 ft | 299 kts | 315° |
| 2026-05-05 18:45 | 35.21661 | -81.10572 | 10644 ft | 314 kts | 315° |
| 2026-05-05 18:45 | 35.23353 | -81.12389 | 11073 ft | 332 kts | 315° |
| 2026-05-05 18:46 | 35.25121 | -81.14290 | 11663 ft | 342 kts | 315° |
| 2026-05-05 18:46 | 35.26909 | -81.16207 | 12519 ft | 344 kts | 315° |
| 2026-05-05 18:46 | 35.28713 | -81.18142 | 13376 ft | 346 kts | 315° |
| 2026-05-05 18:46 | 35.30535 | -81.20097 | 14230 ft | 349 kts | 315° |
| 2026-05-05 18:47 | 35.32366 | -81.22063 | 15089 ft | 352 kts | 315° |
| 2026-05-05 18:47 | 35.34209 | -81.24043 | 15925 ft | 354 kts | 315° |
| 2026-05-05 18:47 | 35.36070 | -81.26043 | 16713 ft | 357 kts | 315° |
| 2026-05-05 18:47 | 35.37945 | -81.28060 | 17483 ft | 360 kts | 315° |
| 2026-05-05 18:48 | 35.39839 | -81.30098 | 18229 ft | 363 kts | 315° |
| 2026-05-05 18:48 | 35.41740 | -81.32145 | 18927 ft | 366 kts | 315° |
| 2026-05-05 18:48 | 35.43664 | -81.34218 | 19591 ft | 370 kts | 315° |
| 2026-05-05 18:48 | 35.45605 | -81.36311 | 20244 ft | 373 kts | 315° |
| 2026-05-05 18:49 | 35.47581 | -81.38443 | 20871 ft | 376 kts | 315° |
| 2026-05-05 18:49 | 35.49558 | -81.40578 | 21475 ft | 380 kts | 315° |
| 2026-05-05 18:49 | 35.51525 | -81.42703 | 22058 ft | 383 kts | 315° |
| 2026-05-05 18:49 | 35.53527 | -81.44867 | 22634 ft | 386 kts | 316° |
| 2026-05-05 18:50 | 35.55567 | -81.47014 | 23176 ft | 391 kts | 320° |
| 2026-05-05 18:50 | 35.57785 | -81.48981 | 23722 ft | 394 kts | 321° |
| 2026-05-05 18:50 | 35.60007 | -81.50972 | 24246 ft | 397 kts | 321° |
| 2026-05-05 18:50 | 35.62244 | -81.52997 | 24790 ft | 399 kts | 321° |
| 2026-05-05 18:51 | 35.64491 | -81.55000 | 25348 ft | 400 kts | 322° |
| 2026-05-05 18:51 | 35.66769 | -81.56977 | 25918 ft | 401 kts | 321° |
| 2026-05-05 18:51 | 35.69044 | -81.58961 | 26473 ft | 401 kts | 321° |
| 2026-05-05 18:51 | 35.71318 | -81.60950 | 26993 ft | 402 kts | 321° |
| 2026-05-05 18:52 | 35.73591 | -81.62939 | 27521 ft | 402 kts | 321° |
| 2026-05-05 18:52 | 35.75865 | -81.64932 | 28010 ft | 403 kts | 321° |
| 2026-05-05 18:52 | 35.78152 | -81.66938 | 28516 ft | 403 kts | 321° |
| 2026-05-05 18:52 | 35.80441 | -81.68946 | 29033 ft | 402 kts | 321° |
| 2026-05-05 18:53 | 35.82724 | -81.70950 | 29479 ft | 403 kts | 320° |
| 2026-05-05 18:53 | 35.85003 | -81.72954 | 29930 ft | 403 kts | 320° |
| 2026-05-05 18:53 | 35.87283 | -81.74958 | 30083 ft | 400 kts | 320° |
| 2026-05-05 18:53 | 35.89540 | -81.76944 | 30091 ft | 397 kts | 320° |
| 2026-05-05 18:54 | 35.94016 | -81.80888 | 30079 ft | 396 kts | 320° |
| 2026-05-05 18:54 | 35.98502 | -81.84845 | 30095 ft | 396 kts | 320° |
| 2026-05-05 18:55 | 36.02982 | -81.88804 | 30093 ft | 396 kts | 320° |
| 2026-05-05 18:55 | 36.07455 | -81.92762 | 30088 ft | 395 kts | 320° |
| 2026-05-05 18:56 | 36.11919 | -81.96717 | 30067 ft | 395 kts | 320° |
| 2026-05-05 18:56 | 36.16387 | -82.00681 | 30069 ft | 395 kts | 320° |
| 2026-05-05 18:57 | 36.20855 | -82.04653 | 30053 ft | 395 kts | 320° |
| 2026-05-05 18:57 | 36.25322 | -82.08626 | 30041 ft | 395 kts | 320° |
| 2026-05-05 18:58 | 36.29796 | -82.12614 | 30017 ft | 396 kts | 320° |
| 2026-05-05 18:58 | 36.34254 | -82.16593 | 30037 ft | 396 kts | 320° |
| 2026-05-05 18:59 | 36.38728 | -82.20591 | 30012 ft | 396 kts | 320° |
| 2026-05-05 18:59 | 36.43191 | -82.24586 | 30003 ft | 396 kts | 320° |
| 2026-05-05 19:00 | 36.47665 | -82.28593 | 30012 ft | 396 kts | 320° |
| 2026-05-05 19:00 | 36.52132 | -82.32603 | 29999 ft | 396 kts | 320° |
| 2026-05-05 19:01 | 36.56604 | -82.36625 | 30013 ft | 398 kts | 320° |
| 2026-05-05 19:01 | 36.61078 | -82.40653 | 30020 ft | 395 kts | 319° |
| 2026-05-05 19:02 | 36.65543 | -82.44676 | 30047 ft | 395 kts | 319° |
| 2026-05-05 19:02 | 36.70010 | -82.48711 | 30004 ft | 398 kts | 320° |
| 2026-05-05 19:03 | 36.74473 | -82.52746 | 29990 ft | 396 kts | 319° |
| 2026-05-05 19:03 | 36.78943 | -82.56787 | 30024 ft | 398 kts | 319° |
| 2026-05-05 19:04 | 36.83393 | -82.60830 | 30039 ft | 396 kts | 319° |
| 2026-05-05 19:04 | 36.87843 | -82.64887 | 30052 ft | 396 kts | 319° |
| 2026-05-05 19:05 | 36.92324 | -82.68969 | 30034 ft | 396 kts | 319° |
| 2026-05-05 19:05 | 36.96802 | -82.73050 | 30052 ft | 400 kts | 319° |
| 2026-05-05 19:06 | 37.01275 | -82.77136 | 30027 ft | 397 kts | 319° |
| 2026-05-05 19:06 | 37.05733 | -82.81212 | 30039 ft | 398 kts | 319° |
| 2026-05-05 19:07 | 37.10207 | -82.85316 | 30031 ft | 398 kts | 319° |
| 2026-05-05 19:07 | 37.14669 | -82.89415 | 30029 ft | 397 kts | 319° |
| 2026-05-05 19:08 | 37.19116 | -82.93499 | 29959 ft | 399 kts | 319° |
| 2026-05-05 19:08 | 37.23577 | -82.97614 | 30015 ft | 398 kts | 318° |
| 2026-05-05 19:09 | 37.28046 | -83.01729 | 30019 ft | 399 kts | 318° |
| 2026-05-05 19:09 | 37.32514 | -83.05853 | 30022 ft | 398 kts | 318° |
| 2026-05-05 19:10 | 37.36989 | -83.09991 | 29974 ft | 400 kts | 319° |
| 2026-05-05 19:10 | 37.41480 | -83.14147 | 29965 ft | 399 kts | 319° |
| 2026-05-05 19:11 | 37.45961 | -83.18304 | 30021 ft | 401 kts | 318° |
| 2026-05-05 19:11 | 37.50426 | -83.22454 | 29972 ft | 399 kts | 318° |
| 2026-05-05 19:12 | 37.54889 | -83.26605 | 29899 ft | 399 kts | 318° |
| 2026-05-05 19:12 | 37.57116 | -83.28680 | 30040 ft | 400 kts | 318° |
| 2026-05-05 19:12 | 37.59343 | -83.30756 | 29944 ft | 400 kts | 317° |
| 2026-05-05 19:13 | 37.63819 | -83.34931 | 29978 ft | 400 kts | 318° |
| 2026-05-05 19:13 | 37.68274 | -83.39094 | 29967 ft | 400 kts | 318° |
| 2026-05-05 19:14 | 37.72742 | -83.43275 | 29986 ft | 400 kts | 317° |
| 2026-05-05 19:14 | 37.77188 | -83.47448 | 30012 ft | 399 kts | 317° |
| 2026-05-05 19:15 | 37.81651 | -83.51639 | 29964 ft | 399 kts | 317° |
| 2026-05-05 19:15 | 37.86107 | -83.55830 | 29964 ft | 400 kts | 317° |
| 2026-05-05 19:16 | 37.90572 | -83.60035 | 29954 ft | 400 kts | 317° |
| 2026-05-05 19:16 | 37.94275 | -83.63528 | 29958 ft | 400 kts | 317° |
| 2026-05-05 19:17 | 37.98722 | -83.67727 | 29953 ft | 399 kts | 317° |
| 2026-05-05 19:17 | 38.03178 | -83.71944 | 29946 ft | 400 kts | 317° |
| 2026-05-05 19:18 | 38.07630 | -83.76162 | 29939 ft | 399 kts | 317° |
| 2026-05-05 19:18 | 38.12113 | -83.80416 | 29948 ft | 400 kts | 317° |
| 2026-05-05 19:19 | 38.16560 | -83.84642 | 29946 ft | 400 kts | 317° |
| 2026-05-05 19:19 | 38.20979 | -83.88849 | 29945 ft | 400 kts | 317° |
| 2026-05-05 19:20 | 38.25430 | -83.93092 | 29945 ft | 400 kts | 317° |
| 2026-05-05 19:20 | 38.29870 | -83.97332 | 29943 ft | 400 kts | 317° |
| 2026-05-05 19:21 | 38.34312 | -84.01581 | 29933 ft | 400 kts | 317° |
| 2026-05-05 19:21 | 38.38760 | -84.05841 | 29932 ft | 400 kts | 317° |
| 2026-05-05 19:22 | 38.43213 | -84.10113 | 29924 ft | 400 kts | 317° |
| 2026-05-05 19:22 | 38.47685 | -84.14411 | 29920 ft | 401 kts | 317° |
| 2026-05-05 19:23 | 38.52116 | -84.18673 | 29915 ft | 401 kts | 317° |
| 2026-05-05 19:23 | 38.56565 | -84.22960 | 29898 ft | 401 kts | 316° |
| 2026-05-05 19:24 | 38.61024 | -84.27264 | 29881 ft | 403 kts | 316° |
| 2026-05-05 19:24 | 38.65527 | -84.31541 | 29881 ft | 404 kts | 319° |
| 2026-05-05 19:25 | 38.70136 | -84.35665 | 29875 ft | 404 kts | 318° |
| 2026-05-05 19:25 | 38.74730 | -84.39807 | 29886 ft | 405 kts | 318° |
| 2026-05-05 19:26 | 38.79333 | -84.43966 | 29878 ft | 405 kts | 318° |
| 2026-05-05 19:26 | 38.83939 | -84.48135 | 29879 ft | 405 kts | 318° |
| 2026-05-05 19:27 | 38.88553 | -84.52319 | 29879 ft | 406 kts | 318° |
| 2026-05-05 19:27 | 38.93135 | -84.56479 | 29875 ft | 406 kts | 318° |
| 2026-05-05 19:28 | 38.97762 | -84.60687 | 29870 ft | 406 kts | 318° |
| 2026-05-05 19:28 | 39.02358 | -84.64874 | 29872 ft | 407 kts | 317° |
| 2026-05-05 19:29 | 39.06968 | -84.69081 | 29869 ft | 407 kts | 318° |
| 2026-05-05 19:29 | 39.11597 | -84.73312 | 29871 ft | 408 kts | 317° |
| 2026-05-05 19:30 | 39.16212 | -84.77534 | 29853 ft | 408 kts | 317° |
| 2026-05-05 19:30 | 39.20846 | -84.81785 | 29862 ft | 407 kts | 317° |
| 2026-05-05 19:31 | 39.25458 | -84.86022 | 29887 ft | 408 kts | 317° |
| 2026-05-05 19:31 | 39.30078 | -84.90274 | 29886 ft | 409 kts | 317° |
| 2026-05-05 19:32 | 39.34703 | -84.94532 | 29901 ft | 406 kts | 317° |
| 2026-05-05 19:32 | 39.39317 | -84.98791 | 29907 ft | 408 kts | 317° |
| 2026-05-05 19:33 | 39.43941 | -85.03069 | 29889 ft | 409 kts | 317° |
| 2026-05-05 19:33 | 39.48582 | -85.07370 | 29903 ft | 410 kts | 317° |
| 2026-05-05 19:34 | 39.53216 | -85.11665 | 29905 ft | 410 kts | 317° |
| 2026-05-05 19:35 | 39.60195 | -85.18153 | 29864 ft | 411 kts | 317° |
| 2026-05-05 19:35 | 39.64838 | -85.22475 | 29849 ft | 410 kts | 317° |
| 2026-05-05 19:36 | 39.69497 | -85.26827 | 29871 ft | 414 kts | 317° |
| 2026-05-05 19:36 | 39.74168 | -85.31193 | 29881 ft | 412 kts | 316° |
| 2026-05-05 19:37 | 39.78837 | -85.35566 | 29733 ft | 414 kts | 316° |
| 2026-05-05 19:37 | 39.81178 | -85.37757 | 29453 ft | 415 kts | 317° |
| 2026-05-05 19:37 | 39.83524 | -85.39957 | 29234 ft | 417 kts | 317° |
| 2026-05-05 19:37 | 39.85873 | -85.42166 | 28997 ft | 418 kts | 317° |
| 2026-05-05 19:38 | 39.88244 | -85.44397 | 28756 ft | 421 kts | 317° |
| 2026-05-05 19:38 | 39.90615 | -85.46627 | 28511 ft | 423 kts | 317° |
| 2026-05-05 19:38 | 39.93008 | -85.48880 | 28284 ft | 424 kts | 317° |
| 2026-05-05 19:38 | 39.95402 | -85.51136 | 28040 ft | 426 kts | 317° |
| 2026-05-05 19:39 | 39.97788 | -85.53387 | 27802 ft | 427 kts | 317° |
| 2026-05-05 19:39 | 40.00203 | -85.55668 | 27561 ft | 429 kts | 317° |
| 2026-05-05 19:39 | 40.02624 | -85.57956 | 27326 ft | 431 kts | 317° |
| 2026-05-05 19:39 | 40.05059 | -85.60258 | 27074 ft | 433 kts | 317° |
| 2026-05-05 19:40 | 40.07505 | -85.62573 | 26831 ft | 434 kts | 317° |
| 2026-05-05 19:40 | 40.09947 | -85.64888 | 26586 ft | 435 kts | 317° |
| 2026-05-05 19:40 | 40.12438 | -85.67251 | 26340 ft | 437 kts | 317° |
| 2026-05-05 19:40 | 40.14896 | -85.69584 | 26095 ft | 438 kts | 317° |
| 2026-05-05 19:41 | 40.17331 | -85.71897 | 25853 ft | 439 kts | 317° |
| 2026-05-05 19:41 | 40.19803 | -85.74248 | 25607 ft | 440 kts | 317° |
| 2026-05-05 19:41 | 40.22283 | -85.76609 | 25357 ft | 442 kts | 317° |
| 2026-05-05 19:41 | 40.24767 | -85.78976 | 25126 ft | 443 kts | 318° |
| 2026-05-05 19:42 | 40.27285 | -85.81334 | 24877 ft | 447 kts | 321° |
| 2026-05-05 19:42 | 40.29946 | -85.83366 | 24630 ft | 437 kts | 323° |
| 2026-05-05 19:42 | 40.32525 | -85.85350 | 24402 ft | 423 kts | 323° |
| 2026-05-05 19:42 | 40.35041 | -85.87317 | 23751 ft | 421 kts | 323° |
| 2026-05-05 19:43 | 40.37549 | -85.89295 | 23164 ft | 418 kts | 322° |
| 2026-05-05 19:43 | 40.40016 | -85.91247 | 22603 ft | 414 kts | 322° |
| 2026-05-05 19:43 | 40.42476 | -85.93198 | 22026 ft | 412 kts | 323° |
| 2026-05-05 19:43 | 40.44920 | -85.95136 | 21475 ft | 408 kts | 323° |
| 2026-05-05 19:44 | 40.47340 | -85.97059 | 20938 ft | 405 kts | 323° |
| 2026-05-05 19:44 | 40.49737 | -85.98964 | 20372 ft | 402 kts | 323° |
| 2026-05-05 19:44 | 40.52128 | -86.00866 | 19833 ft | 400 kts | 323° |
| 2026-05-05 19:44 | 40.54490 | -86.02747 | 19305 ft | 396 kts | 323° |
| 2026-05-05 19:45 | 40.56847 | -86.04625 | 18788 ft | 394 kts | 323° |
| 2026-05-05 19:45 | 40.59168 | -86.06477 | 18268 ft | 391 kts | 323° |
| 2026-05-05 19:45 | 40.61491 | -86.08330 | 17754 ft | 388 kts | 323° |
| 2026-05-05 19:45 | 40.63791 | -86.10167 | 17229 ft | 386 kts | 323° |
| 2026-05-05 19:46 | 40.66081 | -86.11997 | 16691 ft | 383 kts | 323° |
| 2026-05-05 19:46 | 40.68341 | -86.13807 | 16202 ft | 380 kts | 322° |
| 2026-05-05 19:46 | 40.70593 | -86.15611 | 15692 ft | 378 kts | 322° |
| 2026-05-05 19:46 | 40.72832 | -86.17405 | 15229 ft | 375 kts | 322° |
| 2026-05-05 19:47 | 40.75053 | -86.19187 | 14739 ft | 373 kts | 322° |
| 2026-05-05 19:47 | 40.77256 | -86.20954 | 14271 ft | 370 kts | 322° |
| 2026-05-05 19:47 | 40.79444 | -86.22712 | 13807 ft | 366 kts | 322° |
| 2026-05-05 19:47 | 40.81604 | -86.24449 | 13286 ft | 365 kts | 322° |
| 2026-05-05 19:48 | 40.83752 | -86.26178 | 12836 ft | 361 kts | 321° |
| 2026-05-05 19:48 | 40.85903 | -86.27909 | 12363 ft | 359 kts | 321° |
| 2026-05-05 19:48 | 40.88026 | -86.29621 | 11866 ft | 357 kts | 321° |
| 2026-05-05 19:48 | 40.90137 | -86.31322 | 11426 ft | 354 kts | 321° |
| 2026-05-05 19:49 | 40.92230 | -86.33011 | 11078 ft | 349 kts | 322° |
| 2026-05-05 19:49 | 40.93604 | -86.34121 | 11012 ft | 351 kts | 322° |
| 2026-05-05 19:49 | 40.96391 | -86.36373 | 10987 ft | 352 kts | 322° |
| 2026-05-05 19:49 | 40.98486 | -86.38069 | 11000 ft | 352 kts | 322° |
| 2026-05-05 19:50 | 41.00566 | -86.39752 | 10984 ft | 351 kts | 322° |
| 2026-05-05 19:50 | 41.02643 | -86.41434 | 10988 ft | 351 kts | 322° |
| 2026-05-05 19:50 | 41.04608 | -86.43287 | 10976 ft | 341 kts | 308° |
| 2026-05-05 19:50 | 41.05921 | -86.45815 | 11004 ft | 331 kts | 292° |
| 2026-05-05 19:51 | 41.07029 | -86.48489 | 10985 ft | 332 kts | 293° |
| 2026-05-05 19:51 | 41.08143 | -86.51186 | 10985 ft | 332 kts | 293° |
| 2026-05-05 19:51 | 41.09245 | -86.53871 | 10994 ft | 332 kts | 293° |
| 2026-05-05 19:51 | 41.10343 | -86.56559 | 10991 ft | 332 kts | 293° |
| 2026-05-05 19:52 | 41.11441 | -86.59250 | 10992 ft | 331 kts | 293° |
| 2026-05-05 19:52 | 41.12608 | -86.61882 | 10979 ft | 336 kts | 303° |
| 2026-05-05 19:52 | 41.14346 | -86.64023 | 11007 ft | 344 kts | 314° |
| 2026-05-05 19:52 | 41.16168 | -86.66080 | 10975 ft | 343 kts | 313° |
| 2026-05-05 19:53 | 41.17965 | -86.68131 | 10976 ft | 343 kts | 313° |
| 2026-05-05 19:53 | 41.19772 | -86.70196 | 10980 ft | 343 kts | 313° |
| 2026-05-05 19:53 | 41.21514 | -86.72323 | 10924 ft | 334 kts | 306° |
| 2026-05-05 19:53 | 41.23034 | -86.74584 | 10799 ft | 322 kts | 306° |
| 2026-05-05 19:54 | 41.24510 | -86.76749 | 10691 ft | 309 kts | 306° |
| 2026-05-05 19:54 | 41.25926 | -86.78808 | 10706 ft | 294 kts | 306° |
| 2026-05-05 19:54 | 41.27274 | -86.80757 | 10693 ft | 280 kts | 306° |
| 2026-05-05 19:54 | 41.28554 | -86.82597 | 10627 ft | 269 kts | 306° |
| 2026-05-05 19:55 | 41.29799 | -86.84390 | 10512 ft | 260 kts | 305° |
| 2026-05-05 19:55 | 41.31040 | -86.86178 | 10396 ft | 269 kts | 306° |
| 2026-05-05 19:55 | 41.32330 | -86.88030 | 10261 ft | 276 kts | 307° |
| 2026-05-05 19:55 | 41.33641 | -86.89916 | 10175 ft | 277 kts | 306° |
| 2026-05-05 19:56 | 41.34953 | -86.91804 | 9884 ft | 280 kts | 307° |
| 2026-05-05 19:56 | 41.36274 | -86.93708 | 9544 ft | 279 kts | 307° |
| 2026-05-05 19:56 | 41.37586 | -86.95600 | 9225 ft | 277 kts | 307° |
| 2026-05-05 19:56 | 41.38890 | -86.97484 | 8918 ft | 274 kts | 307° |
| 2026-05-05 19:57 | 41.40176 | -86.99340 | 8622 ft | 272 kts | 308° |
| 2026-05-05 19:57 | 41.41038 | -87.00584 | 8412 ft | 271 kts | 308° |
| 2026-05-05 19:57 | 41.42720 | -87.03015 | 8008 ft | 267 kts | 308° |
| 2026-05-05 19:57 | 41.43572 | -87.04247 | 7806 ft | 265 kts | 308° |
| 2026-05-05 19:58 | 41.44812 | -87.06039 | 7507 ft | 263 kts | 308° |
| 2026-05-05 19:58 | 41.46050 | -87.07831 | 7226 ft | 261 kts | 308° |
| 2026-05-05 19:58 | 41.47271 | -87.09598 | 6925 ft | 259 kts | 309° |
| 2026-05-05 19:58 | 41.48489 | -87.11363 | 6624 ft | 257 kts | 309° |
| 2026-05-05 19:59 | 41.49688 | -87.13102 | 6347 ft | 254 kts | 309° |
| 2026-05-05 19:59 | 41.50879 | -87.14836 | 6073 ft | 251 kts | 309° |
| 2026-05-05 19:59 | 41.51858 | -87.16739 | 6021 ft | 252 kts | 291° |
| 2026-05-05 19:59 | 41.52506 | -87.18927 | 6020 ft | 254 kts | 290° |
| 2026-05-05 20:00 | 41.53151 | -87.21114 | 6006 ft | 254 kts | 290° |
| 2026-05-05 20:00 | 41.53800 | -87.23318 | 6012 ft | 255 kts | 290° |
| 2026-05-05 20:00 | 41.54445 | -87.25506 | 6003 ft | 254 kts | 290° |
| 2026-05-05 20:00 | 41.55094 | -87.27707 | 6004 ft | 255 kts | 289° |
| 2026-05-05 20:01 | 41.55737 | -87.29907 | 6003 ft | 255 kts | 290° |
| 2026-05-05 20:01 | 41.56385 | -87.32112 | 5996 ft | 255 kts | 290° |
| 2026-05-05 20:01 | 41.57027 | -87.34312 | 6000 ft | 254 kts | 290° |
| 2026-05-05 20:01 | 41.57667 | -87.36494 | 5966 ft | 250 kts | 290° |
| 2026-05-05 20:02 | 41.58287 | -87.38609 | 5882 ft | 239 kts | 290° |
| 2026-05-05 20:02 | 41.58881 | -87.40647 | 5754 ft | 231 kts | 290° |
| 2026-05-05 20:02 | 41.59449 | -87.42591 | 5678 ft | 220 kts | 290° |
| 2026-05-05 20:02 | 41.60000 | -87.44471 | 5527 ft | 214 kts | 290° |
| 2026-05-05 20:03 | 41.60540 | -87.46324 | 5371 ft | 208 kts | 290° |
| 2026-05-05 20:03 | 41.61047 | -87.48065 | 5267 ft | 199 kts | 290° |
| 2026-05-05 20:03 | 41.61539 | -87.49755 | 5117 ft | 191 kts | 290° |
| 2026-05-05 20:03 | 41.62018 | -87.51391 | 5047 ft | 188 kts | 291° |
| 2026-05-05 20:04 | 41.62725 | -87.52856 | 4888 ft | 190 kts | 309° |
| 2026-05-05 20:04 | 41.63607 | -87.54178 | 4634 ft | 190 kts | 310° |
| 2026-05-05 20:04 | 41.64489 | -87.55463 | 4405 ft | 184 kts | 311° |
| 2026-05-05 20:04 | 41.65354 | -87.56702 | 4161 ft | 181 kts | 311° |
| 2026-05-05 20:05 | 41.66211 | -87.57919 | 3933 ft | 179 kts | 312° |
| 2026-05-05 20:05 | 41.67063 | -87.59122 | 3695 ft | 178 kts | 312° |
| 2026-05-05 20:05 | 41.67912 | -87.60318 | 3461 ft | 178 kts | 313° |
| 2026-05-05 20:05 | 41.68766 | -87.61517 | 3224 ft | 177 kts | 313° |
| 2026-05-05 20:06 | 41.69603 | -87.62693 | 3024 ft | 172 kts | 313° |
| 2026-05-05 20:06 | 41.70385 | -87.63787 | 2794 ft | 155 kts | 313° |
| 2026-05-05 20:06 | 41.71090 | -87.64778 | 2599 ft | 143 kts | 313° |
| 2026-05-05 20:06 | 41.71765 | -87.65726 | 2408 ft | 139 kts | 313° |
| 2026-05-05 20:07 | 41.72431 | -87.66662 | 2237 ft | 139 kts | 313° |
| 2026-05-05 20:07 | 41.73083 | -87.67577 | 2058 ft | 134 kts | 312° |
| 2026-05-05 20:07 | 41.73728 | -87.68481 | 1865 ft | 134 kts | 312° |
| 2026-05-05 20:07 | 41.74371 | -87.69385 | 1692 ft | 134 kts | 312° |
| 2026-05-05 20:08 | 41.75022 | -87.70307 | 1528 ft | 134 kts | 311° |
| 2026-05-05 20:08 | 41.75667 | -87.71204 | 1343 ft | 134 kts | 313° |
| 2026-05-05 20:08 | 41.76314 | -87.72107 | 1172 ft | 134 kts | 312° |
| 2026-05-05 20:08 | 41.76952 | -87.73011 | 966 ft | 134 kts | 313° |
| 2026-05-05 20:09 | 41.77601 | -87.73911 | 777 ft | 135 kts | 312° |
| 2026-05-05 20:09 | 41.78235 | -87.74807 | 638 ft | 129 kts | 313° |
| 2026-05-05 20:09 | 41.78722 | -87.75494 | 630 ft | 69 kts | 314° |
| 2026-05-05 20:09 | 41.78976 | -87.75782 | 632 ft | 35 kts | 338° |
| 2026-05-05 20:10 | 41.79105 | -87.75815 | 639 ft | 11 kts | 28° |
| 2026-05-05 20:10 | 41.79127 | -87.75720 | 631 ft | 12 kts | 86° |
| 2026-05-05 20:10 | 41.79127 | -87.75592 | 631 ft | 15 kts | 89° |
| 2026-05-05 20:10 | 41.79130 | -87.75432 | 631 ft | 19 kts | 88° |
| 2026-05-05 20:11 | 41.79133 | -87.75239 | 635 ft | 22 kts | 89° |
| 2026-05-05 20:11 | 41.79136 | -87.75015 | 637 ft | 26 kts | 89° |
| 2026-05-05 20:11 | 41.79141 | -87.74759 | 631 ft | 29 kts | 89° |
| 2026-05-05 20:11 | 41.79103 | -87.74560 | 632 ft | 19 kts | 132° |
| 2026-05-05 20:12 | 41.79030 | -87.74459 | 633 ft | 17 kts | 135° |
| 2026-05-05 20:12 | 41.78942 | -87.74391 | 635 ft | 9 kts | 140° |
| 2026-05-05 20:12 | 41.78894 | -87.74361 | 636 ft | 5 kts | 175° |
| 2026-05-05 20:12 | 41.78876 | -87.74358 | 632 ft | 1 kts | 173° |
| 2026-05-05 20:13 | 41.78874 | -87.74358 | 632 ft | 0 kts | 173° |